Am Larafale — 9HA2490 — position and weather

sailwx.info

Track history (hours):
 
Tides and Currents Weather Stations Pressure Air Temp Water Temp Dewpoint Dewpoint Depression Visibility Wind Speed Wind Dir Waves Ship Positions

Am Larafale

Last reported at 2018-Feb-14 08:08 UTC. Time now 2018-Feb-19 00:08 UTC.
Position N 38°45' W 010°05'.

Length 106 m; draft 5.7 m.

Type: Cargo ship. MMSI: 248738000.

Date/timePositionNaut miles runAvg speedWind from/ knotsBaromVisibWave heightAir tempDewpointWater temp
2018-Feb-14 08:08N 38°45' W 010°05'1 8.7
2018-Feb-14 08:00N 38°46' W 010°05'4 8.9
2018-Feb-14 07:30N 38°50' W 010°05'4 8.9
2018-Feb-14 07:00N 38°55' W 010°05'4 8.7
2018-Feb-14 06:30N 38°59' W 010°05'5 8.6
2018-Feb-14 05:52N 39°05' W 010°05'4 8.4
2018-Feb-14 05:25N 39°08' W 010°05'4 8.6
2018-Feb-14 04:54N 39°13' W 010°05'  
2018-Feb-10 18:43N 45°40' W 001°12'211.8
2018-Feb-10 18:31N 45°39' W 001°09'611.8
2018-Feb-10 18:01N 45°35' W 001°03'611.7
2018-Feb-10 17:30N 45°30' W 000°57'611.9
2018-Feb-10 17:00N 45°25' W 000°52'611.9
2018-Feb-10 16:30N 45°20' W 000°48'  
2018-Feb-08 07:30N 45°33' W 001°03'0 0.0
2018-Feb-08 07:00N 45°33' W 001°03'0 0.1
2018-Feb-08 06:30N 45°34' W 001°03'0 0.0
2018-Feb-08 05:00N 45°34' W 001°03'0 0.2
2018-Feb-08 04:30N 45°34' W 001°03'0 0.0
2018-Feb-08 03:30N 45°34' W 001°03'0 0.0
2018-Feb-08 03:00N 45°34' W 001°03'0 0.0
2018-Feb-08 01:24N 45°34' W 001°03'0 0.0
2018-Feb-08 01:00N 45°34' W 001°03'0 0.0
2018-Feb-08 00:27N 45°34' W 001°03'0 0.1
2018-Feb-07 23:57N 45°34' W 001°03'0 0.1
2018-Feb-07 23:30N 45°34' W 001°03'0 0.1
2018-Feb-07 22:57N 45°33' W 001°03'0 0.1
2018-Feb-07 22:24N 45°33' W 001°03'0 0.1
2018-Feb-07 22:00N 45°33' W 001°03'0 0.0
2018-Feb-07 21:30N 45°33' W 001°03'  
Track history (hours):
 
Tides and Currents Weather Stations Pressure Air Temp Water Temp Dewpoint Dewpoint Depression Visibility Wind Speed Wind Dir Waves Ship Positions

Am Larafale

Last reported at 2018-Feb-14 08:08 UTC. Time now 2018-Feb-19 00:08 UTC.
Position N 38°45' W 010°05'.

Length 106 m; draft 5.7 m.

Type: Cargo ship. MMSI: 248738000.

Date/timePositionNaut miles runAvg speedWind from/ knotsBaromVisibWave heightAir tempDewpointWater temp
2018-Feb-14 08:08N 38°45' W 010°05'1 8.7
2018-Feb-14 08:00N 38°46' W 010°05'4 8.9
2018-Feb-14 07:30N 38°50' W 010°05'4 8.9
2018-Feb-14 07:00N 38°55' W 010°05'4 8.7
2018-Feb-14 06:30N 38°59' W 010°05'5 8.6
2018-Feb-14 05:52N 39°05' W 010°05'4 8.4
2018-Feb-14 05:25N 39°08' W 010°05'4 8.6
2018-Feb-14 04:54N 39°13' W 010°05'  
2018-Feb-10 18:43N 45°40' W 001°12'211.8
2018-Feb-10 18:31N 45°39' W 001°09'611.8
2018-Feb-10 18:01N 45°35' W 001°03'611.7
2018-Feb-10 17:30N 45°30' W 000°57'611.9
2018-Feb-10 17:00N 45°25' W 000°52'611.9
2018-Feb-10 16:30N 45°20' W 000°48'  
2018-Feb-08 07:30N 45°33' W 001°03'0 0.0
2018-Feb-08 07:00N 45°33' W 001°03'0 0.1
2018-Feb-08 06:30N 45°34' W 001°03'0 0.0
2018-Feb-08 05:00N 45°34' W 001°03'0 0.2
2018-Feb-08 04:30N 45°34' W 001°03'0 0.0
2018-Feb-08 03:30N 45°34' W 001°03'0 0.0
2018-Feb-08 03:00N 45°34' W 001°03'0 0.0
2018-Feb-08 01:24N 45°34' W 001°03'0 0.0
2018-Feb-08 01:00N 45°34' W 001°03'0 0.0
2018-Feb-08 00:27N 45°34' W 001°03'0 0.1
2018-Feb-07 23:57N 45°34' W 001°03'0 0.1
2018-Feb-07 23:30N 45°34' W 001°03'0 0.1
2018-Feb-07 22:57N 45°33' W 001°03'0 0.1
2018-Feb-07 22:24N 45°33' W 001°03'0 0.1
2018-Feb-07 22:00N 45°33' W 001°03'0 0.0
2018-Feb-07 21:30N 45°33' W 001°03'  

Dump ship's entire track history